createdAt,value
2023-03-30T00:00:49.083Z,17.88
2023-03-30T00:03:19.517Z,21.60
2023-03-30T00:05:50.202Z,22.15
2023-03-30T00:08:18.439Z,19.08
2023-03-30T00:10:46.383Z,16.35
2023-03-30T00:13:13.523Z,19.40
2023-03-30T00:15:41.323Z,16.58
2023-03-30T00:18:09.369Z,18.10
2023-03-30T00:20:37.641Z,15.10
2023-03-30T00:23:04.676Z,14.80
2023-03-30T00:25:31.623Z,23.85
2023-03-30T00:27:58.387Z,21.70
2023-03-30T00:30:25.292Z,19.02
2023-03-30T00:32:52.104Z,16.65
2023-03-30T00:35:19.730Z,19.83
2023-03-30T00:37:49.641Z,12.85
2023-03-30T00:40:20.704Z,10.10
2023-03-30T00:42:48.624Z,14.85
2023-03-30T00:45:27.914Z,13.68
2023-03-30T00:48:18.989Z,15.30
2023-03-30T00:51:14.146Z,7.30
2023-03-30T00:53:51.094Z,14.45
2023-03-30T00:56:23.168Z,11.75
2023-03-30T00:58:50.551Z,8.40
2023-03-30T01:01:25.972Z,11.32
2023-03-30T01:03:53.861Z,9.32
2023-03-30T01:06:24.559Z,9.93
2023-03-30T01:08:53.263Z,10.00
2023-03-30T01:11:21.381Z,8.95
2023-03-30T01:13:51.123Z,11.23
2023-03-30T01:16:36.178Z,8.98
2023-03-30T01:19:16.541Z,13.20
2023-03-30T01:22:20.291Z,12.75
2023-03-30T01:25:03.077Z,14.10
2023-03-30T01:27:51.771Z,13.65
2023-03-30T01:30:49.743Z,10.75
2023-03-30T01:33:28.678Z,14.50
2023-03-30T01:36:31.292Z,12.40
2023-03-30T01:39:29.368Z,18.27
2023-03-30T01:41:59.196Z,15.98
2023-03-30T01:44:44.037Z,16.08
2023-03-30T01:47:28.835Z,17.02
2023-03-30T01:50:06.053Z,15.38
2023-03-30T01:52:41.353Z,10.85
2023-03-30T01:55:26.473Z,13.00
2023-03-30T01:57:59.173Z,11.07
2023-03-30T02:00:27.897Z,11.65
2023-03-30T02:03:00.692Z,11.20
2023-03-30T02:05:30.742Z,15.52
2023-03-30T02:08:03.373Z,13.20
2023-03-30T02:10:34.042Z,12.95
2023-03-30T02:13:01.808Z,10.30
2023-03-30T02:15:37.626Z,13.82
2023-03-30T02:18:05.085Z,9.93
2023-03-30T02:20:33.349Z,7.43
2023-03-30T02:23:01.638Z,5.55
2023-03-30T02:25:28.757Z,10.02
2023-03-30T02:27:56.545Z,8.70
2023-03-30T02:30:23.325Z,9.48
2023-03-30T02:32:55.022Z,9.63
2023-03-30T02:35:39.230Z,7.68
2023-03-30T02:38:32.795Z,10.43
2023-03-30T02:41:24.250Z,11.80
2023-03-30T02:44:11.252Z,9.38
2023-03-30T02:47:10.444Z,9.60
2023-03-30T02:49:55.406Z,9.02
2023-03-30T02:52:47.273Z,12.35
2023-03-30T02:55:20.879Z,7.70
2023-03-30T02:58:01.790Z,10.15
2023-03-30T03:00:51.580Z,8.77
2023-03-30T03:03:24.732Z,11.27
2023-03-30T03:08:25.394Z,8.85
2023-03-30T03:10:52.375Z,7.72
2023-03-30T03:13:22.195Z,7.93
2023-03-30T03:15:49.833Z,10.48
2023-03-30T03:18:16.726Z,7.72
2023-03-30T03:20:43.548Z,9.68
2023-03-30T03:23:10.256Z,10.07
2023-03-30T03:25:37.232Z,10.40
2023-03-30T03:28:04.262Z,6.82
2023-03-30T03:30:31.036Z,5.18
2023-03-30T03:32:58.278Z,7.10
2023-03-30T03:35:25.248Z,7.00
2023-03-30T03:37:52.023Z,5.75
2023-03-30T03:40:18.855Z,8.57
2023-03-30T03:42:45.748Z,6.35
2023-03-30T03:45:12.797Z,8.35
2023-03-30T03:47:39.828Z,6.85
2023-03-30T03:50:10.010Z,8.52
2023-03-30T03:52:37.450Z,5.72
2023-03-30T03:55:05.228Z,7.95
2023-03-30T03:57:32.148Z,8.05
2023-03-30T04:00:00.107Z,5.47
2023-03-30T04:02:27.893Z,5.15
2023-03-30T04:04:55.909Z,6.53
2023-03-30T04:07:25.689Z,5.25
2023-03-30T04:09:52.716Z,9.50
2023-03-30T04:12:20.453Z,6.03
2023-03-30T04:14:47.432Z,4.07
2023-03-30T04:17:15.012Z,5.50
2023-03-30T04:19:42.172Z,5.28
2023-03-30T04:22:09.195Z,7.00
2023-03-30T04:24:36.085Z,6.00
2023-03-30T04:27:03.454Z,5.88
2023-03-30T04:29:30.986Z,3.20
2023-03-30T04:32:02.956Z,3.95
2023-03-30T04:34:31.365Z,5.53
2023-03-30T04:36:58.273Z,4.75
2023-03-30T04:39:25.418Z,6.75
2023-03-30T04:41:54.442Z,4.82
2023-03-30T04:44:22.224Z,7.15
2023-03-30T04:46:49.208Z,5.00
2023-03-30T04:49:16.109Z,6.82
2023-03-30T04:51:43.394Z,7.32
2023-03-30T04:54:10.253Z,6.68
2023-03-30T04:56:37.042Z,4.47
2023-03-30T04:59:03.766Z,6.60
2023-03-30T05:01:30.966Z,4.35
2023-03-30T05:03:57.786Z,4.43
2023-03-30T05:06:24.464Z,7.88
2023-03-30T05:08:51.660Z,8.00
2023-03-30T05:11:18.350Z,6.57
2023-03-30T05:13:45.035Z,5.57
2023-03-30T05:16:11.840Z,4.78
2023-03-30T05:18:39.396Z,6.38
2023-03-30T05:21:06.443Z,6.25
2023-03-30T05:23:33.344Z,7.68
2023-03-30T05:26:00.133Z,6.47
2023-03-30T05:28:26.921Z,6.30
2023-03-30T05:30:56.960Z,5.57
2023-03-30T05:33:24.363Z,4.88
2023-03-30T05:35:52.024Z,6.55
2023-03-30T05:38:18.718Z,7.53
2023-03-30T05:40:45.452Z,5.25
2023-03-30T05:43:12.472Z,6.65
2023-03-30T05:45:39.229Z,5.80
2023-03-30T05:48:07.288Z,4.10
2023-03-30T05:50:34.087Z,4.70
2023-03-30T05:53:01.141Z,3.53
2023-03-30T05:55:28.025Z,5.30
2023-03-30T05:57:54.888Z,5.75
2023-03-30T06:00:23.039Z,4.30
2023-03-30T06:02:49.922Z,6.30
2023-03-30T06:05:17.402Z,3.80
2023-03-30T06:07:45.805Z,4.78
2023-03-30T06:10:13.190Z,9.10
2023-03-30T06:12:40.202Z,5.45
2023-03-30T06:15:10.911Z,5.97
2023-03-30T06:17:37.942Z,7.15
2023-03-30T06:20:11.466Z,6.65
2023-03-30T06:22:41.521Z,5.53
2023-03-30T06:25:09.407Z,5.35
2023-03-30T06:27:37.491Z,7.25
2023-03-30T06:30:05.368Z,6.05
2023-03-30T06:32:32.186Z,6.72
2023-03-30T06:34:58.827Z,4.45
2023-03-30T06:37:25.493Z,6.80
2023-03-30T06:39:52.744Z,8.20
2023-03-30T06:42:19.524Z,5.35
2023-03-30T06:44:48.134Z,6.05
2023-03-30T06:47:16.540Z,6.97
2023-03-30T06:49:43.270Z,5.50
2023-03-30T06:52:11.510Z,9.55
2023-03-30T06:54:38.185Z,6.60
2023-03-30T06:57:04.902Z,5.97
2023-03-30T06:59:34.532Z,4.25
2023-03-30T07:02:01.584Z,6.72
2023-03-30T07:04:28.596Z,9.88
2023-03-30T07:06:57.849Z,10.75
2023-03-30T07:09:25.187Z,10.73
2023-03-30T07:11:53.890Z,5.78
2023-03-30T07:14:23.002Z,7.05
2023-03-30T07:16:49.777Z,7.10
2023-03-30T07:19:16.596Z,7.55
2023-03-30T07:21:43.539Z,6.90
2023-03-30T07:24:10.291Z,4.53
2023-03-30T07:26:37.141Z,6.03
2023-03-30T07:29:05.433Z,7.70
2023-03-30T07:31:32.273Z,7.47
2023-03-30T07:33:59.133Z,5.97
2023-03-30T07:36:25.858Z,9.82
2023-03-30T07:38:52.835Z,6.65
2023-03-30T07:41:19.871Z,10.23
2023-03-30T07:43:46.583Z,7.45
2023-03-30T07:46:13.427Z,6.32
2023-03-30T07:48:40.956Z,8.32
2023-03-30T07:51:13.687Z,6.15
2023-03-30T07:53:41.057Z,5.55
2023-03-30T07:56:08.274Z,9.70
2023-03-30T07:58:34.999Z,6.35
2023-03-30T08:01:03.360Z,8.15
2023-03-30T08:03:32.226Z,5.75
2023-03-30T08:06:01.221Z,5.00
2023-03-30T08:08:28.052Z,10.10
2023-03-30T08:10:54.881Z,7.90
2023-03-30T08:13:22.129Z,6.75
2023-03-30T08:15:50.751Z,5.80
2023-03-30T08:18:17.522Z,7.97
2023-03-30T08:20:44.526Z,7.45
2023-03-30T08:23:12.441Z,5.28
2023-03-30T08:25:39.062Z,5.85
2023-03-30T08:28:06.137Z,5.43
2023-03-30T08:30:35.667Z,8.25
2023-03-30T08:33:03.042Z,7.30
2023-03-30T08:35:29.732Z,5.78
2023-03-30T08:37:56.375Z,14.40
2023-03-30T08:40:23.635Z,8.45
2023-03-30T08:42:59.374Z,6.25
2023-03-30T08:45:33.485Z,4.47
2023-03-30T08:48:00.381Z,6.68
2023-03-30T08:50:34.242Z,3.10
2023-03-30T08:53:02.513Z,4.47
2023-03-30T08:56:07.834Z,6.30
2023-03-30T08:58:47.376Z,5.90
2023-03-30T09:01:34.754Z,7.10
2023-03-30T09:04:20.841Z,6.28
2023-03-30T09:06:53.858Z,8.88
2023-03-30T09:09:23.661Z,8.25
2023-03-30T09:11:58.112Z,10.95
2023-03-30T09:14:53.350Z,9.73
2023-03-30T09:17:25.523Z,10.77
2023-03-30T09:20:00.567Z,8.60
2023-03-30T09:22:34.233Z,11.43
2023-03-30T09:25:01.524Z,10.93
2023-03-30T09:27:33.982Z,11.18
2023-03-30T09:30:10.175Z,8.18
2023-03-30T09:32:46.803Z,7.35
2023-03-30T09:35:13.373Z,7.85
2023-03-30T09:37:40.028Z,13.65
2023-03-30T09:40:34.266Z,9.32
2023-03-30T09:43:27.032Z,5.88
2023-03-30T09:45:56.931Z,7.30
2023-03-30T09:48:23.630Z,8.00
2023-03-30T09:50:50.274Z,6.70
2023-03-30T09:53:29.526Z,7.07
2023-03-30T09:56:02.682Z,6.30
2023-03-30T09:58:36.296Z,7.15
2023-03-30T10:01:05.086Z,7.15
2023-03-30T10:03:32.780Z,7.57
2023-03-30T10:06:08.624Z,5.40
2023-03-30T10:08:43.369Z,7.13
2023-03-30T10:11:10.796Z,6.55
2023-03-30T10:13:41.791Z,7.65
2023-03-30T10:16:23.625Z,9.40
2023-03-30T10:18:54.404Z,8.43
2023-03-30T10:21:27.159Z,7.00
2023-03-30T10:24:12.638Z,5.65
2023-03-30T10:26:39.467Z,5.30
2023-03-30T10:29:08.059Z,6.68
2023-03-30T10:31:37.659Z,7.72
2023-03-30T10:34:14.279Z,9.40
2023-03-30T10:36:41.152Z,5.32
2023-03-30T10:39:33.916Z,3.90
2023-03-30T10:42:04.351Z,6.55
2023-03-30T10:44:37.084Z,6.40
2023-03-30T10:47:06.722Z,5.68
2023-03-30T10:50:06.048Z,7.78
2023-03-30T10:52:43.045Z,6.82
2023-03-30T10:55:29.063Z,7.33
2023-03-30T10:58:01.520Z,4.88
2023-03-30T11:00:56.346Z,5.25
2023-03-30T11:03:29.645Z,7.68
2023-03-30T11:06:05.380Z,7.88
2023-03-30T11:08:39.455Z,8.63
2023-03-30T11:11:07.622Z,8.88
2023-03-30T11:13:40.113Z,8.50
2023-03-30T11:16:39.338Z,6.25
2023-03-30T11:19:54.538Z,5.47
2023-03-30T11:22:34.485Z,6.63
2023-03-30T11:25:03.369Z,5.75
2023-03-30T11:27:33.985Z,4.47
2023-03-30T11:30:17.492Z,4.93
2023-03-30T11:32:53.137Z,7.05
2023-03-30T11:35:39.346Z,6.00
2023-03-30T11:38:16.163Z,6.03
2023-03-30T11:40:46.442Z,8.57
2023-03-30T11:43:15.825Z,4.57
2023-03-30T11:46:03.554Z,4.18
2023-03-30T11:48:58.659Z,7.65
2023-03-30T11:51:35.695Z,5.03
2023-03-30T11:54:36.257Z,3.70
2023-03-30T11:57:15.208Z,6.18
2023-03-30T11:59:54.105Z,4.45
2023-03-30T12:03:10.111Z,6.40
2023-03-30T12:05:43.489Z,8.35
2023-03-30T12:08:42.620Z,8.90
2023-03-30T12:11:12.230Z,7.88
2023-03-30T12:13:50.241Z,6.88
2023-03-30T12:16:27.575Z,6.70
2023-03-30T12:19:15.685Z,5.63
2023-03-30T12:22:14.056Z,6.43
2023-03-30T12:25:22.292Z,9.68
2023-03-30T12:27:58.752Z,5.93
2023-03-30T12:30:59.745Z,5.43
2023-03-30T12:33:43.812Z,5.20
2023-03-30T12:36:40.890Z,4.68
2023-03-30T12:39:32.187Z,6.38
2023-03-30T12:42:08.114Z,6.15
2023-03-30T12:44:39.358Z,6.22
2023-03-30T12:47:30.384Z,10.93
2023-03-30T12:50:25.517Z,9.48
2023-03-30T12:53:16.830Z,7.70
2023-03-30T12:55:55.733Z,6.78
2023-03-30T12:58:37.406Z,8.35
2023-03-30T13:01:21.553Z,6.68
2023-03-30T13:03:54.349Z,10.10
2023-03-30T13:06:28.736Z,14.32
2023-03-30T13:09:03.604Z,11.43
2023-03-30T13:11:50.117Z,12.35
2023-03-30T13:14:26.412Z,17.02
2023-03-30T13:16:53.256Z,14.27
2023-03-30T13:19:32.561Z,13.23
2023-03-30T13:22:11.620Z,15.48
2023-03-30T13:25:12.380Z,15.75
2023-03-30T13:27:41.961Z,17.85
2023-03-30T13:30:08.624Z,16.60
2023-03-30T13:33:11.567Z,13.77
2023-03-30T13:35:47.192Z,14.18
2023-03-30T13:38:16.925Z,14.38
2023-03-30T13:40:57.951Z,11.80
2023-03-30T13:43:48.569Z,12.65
2023-03-30T13:46:33.010Z,7.63
2023-03-30T13:49:17.737Z,7.32
2023-03-30T13:51:46.042Z,8.90
2023-03-30T13:54:27.943Z,9.88
2023-03-30T13:57:21.102Z,7.50
2023-03-30T13:59:54.072Z,7.43
2023-03-30T14:02:23.853Z,3.67
2023-03-30T14:04:50.628Z,6.07
2023-03-30T14:07:22.451Z,6.28
2023-03-30T14:10:19.943Z,5.65
2023-03-30T14:12:55.307Z,12.40
2023-03-30T14:15:33.924Z,33.17
2023-03-30T14:18:04.656Z,19.92
2023-03-30T14:20:31.634Z,81.97
2023-03-30T14:23:00.489Z,29.25
2023-03-30T14:25:32.012Z,23.00
2023-03-30T14:28:29.223Z,14.80
2023-03-30T14:31:05.069Z,13.73
2023-03-30T14:33:35.098Z,13.13
2023-03-30T14:36:02.682Z,18.73
2023-03-30T14:38:38.004Z,14.75
2023-03-30T14:41:09.252Z,11.43
2023-03-30T14:43:40.730Z,9.57
2023-03-30T14:46:12.482Z,10.38
2023-03-30T14:48:43.219Z,7.18
2023-03-30T14:51:27.977Z,10.90
2023-03-30T14:53:55.484Z,6.07
2023-03-30T14:56:23.474Z,10.95
2023-03-30T14:58:52.049Z,9.43
2023-03-30T15:01:32.671Z,8.90
2023-03-30T15:04:06.049Z,7.63
2023-03-30T15:06:32.904Z,9.98
2023-03-30T15:09:02.170Z,7.57
2023-03-30T15:11:31.909Z,8.65
2023-03-30T15:14:04.077Z,7.30
2023-03-30T15:16:33.680Z,7.47
2023-03-30T15:19:12.985Z,8.40
2023-03-30T15:21:40.606Z,8.18
2023-03-30T15:24:10.308Z,9.32
2023-03-30T15:26:43.589Z,7.13
2023-03-30T15:29:10.784Z,8.02
2023-03-30T15:31:37.671Z,7.72
2023-03-30T15:34:14.011Z,10.20
2023-03-30T15:36:41.078Z,7.30
2023-03-30T15:39:34.038Z,8.77
2023-03-30T15:42:04.562Z,9.13
2023-03-30T15:44:39.094Z,6.30
2023-03-30T15:47:12.318Z,7.38
2023-03-30T15:49:45.964Z,6.47
2023-03-30T15:52:19.683Z,5.80
2023-03-30T15:54:54.122Z,6.60
2023-03-30T15:57:30.232Z,6.40
2023-03-30T16:00:03.163Z,6.15
2023-03-30T16:02:32.899Z,7.40
2023-03-30T16:05:04.729Z,6.45
2023-03-30T16:07:32.297Z,8.02
2023-03-30T16:09:59.008Z,7.70
2023-03-30T16:12:28.145Z,5.82
2023-03-30T16:14:56.091Z,9.18
2023-03-30T16:17:22.997Z,5.43
2023-03-30T16:19:49.625Z,7.63
2023-03-30T16:22:16.633Z,7.65
2023-03-30T16:24:43.549Z,8.70
2023-03-30T16:27:14.161Z,7.30
2023-03-30T16:29:41.097Z,7.60
2023-03-30T16:32:08.005Z,12.18
2023-03-30T16:34:34.793Z,8.05
2023-03-30T16:37:02.077Z,9.95
2023-03-30T16:39:29.958Z,6.07
2023-03-30T16:41:57.053Z,7.25
2023-03-30T16:44:25.095Z,9.35
2023-03-30T16:46:52.406Z,9.07
2023-03-30T16:49:22.493Z,6.57
2023-03-30T16:51:50.024Z,7.38
2023-03-30T16:54:30.234Z,8.30
2023-03-30T16:56:59.753Z,7.40
2023-03-30T16:59:32.064Z,14.73
2023-03-30T17:01:59.540Z,6.43
2023-03-30T17:04:26.601Z,11.02
2023-03-30T17:06:56.282Z,6.50
2023-03-30T17:09:23.377Z,8.75
2023-03-30T17:11:50.472Z,11.43
2023-03-30T17:14:17.363Z,14.10
2023-03-30T17:16:44.118Z,13.82
2023-03-30T17:19:12.719Z,10.63
2023-03-30T17:21:42.806Z,9.80
2023-03-30T17:24:11.020Z,10.48
2023-03-30T17:26:37.975Z,12.13
2023-03-30T17:29:04.836Z,7.28
2023-03-30T17:31:31.614Z,8.70
2023-03-30T17:33:58.279Z,11.25
2023-03-30T17:36:26.138Z,8.57
2023-03-30T17:38:53.176Z,8.70
2023-03-30T17:41:20.755Z,8.70
2023-03-30T17:43:49.115Z,13.30
2023-03-30T17:46:18.296Z,8.65
2023-03-30T17:48:45.722Z,15.38
2023-03-30T17:51:12.413Z,11.00
2023-03-30T17:53:39.190Z,8.82
2023-03-30T17:56:06.442Z,12.35
2023-03-30T17:58:36.457Z,9.10
2023-03-30T18:01:08.588Z,7.97
2023-03-30T18:03:38.517Z,9.10
2023-03-30T18:06:05.973Z,9.80
2023-03-30T18:08:32.633Z,9.77
2023-03-30T18:11:00.772Z,16.55
2023-03-30T18:13:29.003Z,26.23
2023-03-30T18:15:58.600Z,22.17
2023-03-30T18:18:28.230Z,19.75
2023-03-30T18:21:03.610Z,19.13
2023-03-30T18:23:37.378Z,22.17
2023-03-30T18:26:12.231Z,25.45
2023-03-30T18:28:42.522Z,18.65
2023-03-30T18:31:09.438Z,31.02
2023-03-30T18:33:36.246Z,18.55
2023-03-30T18:36:06.124Z,25.38
2023-03-30T18:38:33.604Z,24.00
2023-03-30T18:41:01.425Z,21.08
2023-03-30T18:43:28.349Z,23.00
2023-03-30T18:46:00.058Z,16.00
2023-03-30T18:48:28.325Z,14.82
2023-03-30T18:50:55.767Z,22.67
2023-03-30T18:53:25.348Z,21.85
2023-03-30T18:55:54.554Z,22.90
2023-03-30T18:58:24.343Z,14.88
2023-03-30T19:00:52.494Z,12.30
2023-03-30T19:03:20.580Z,18.27
2023-03-30T19:05:47.689Z,15.07
2023-03-30T19:08:23.318Z,15.32
2023-03-30T19:10:53.163Z,11.65
2023-03-30T19:13:21.753Z,17.05
2023-03-30T19:15:50.043Z,13.77
2023-03-30T19:18:17.957Z,18.65
2023-03-30T19:20:45.528Z,16.33
2023-03-30T19:23:15.757Z,17.48
2023-03-30T19:25:43.545Z,13.45
2023-03-30T19:28:11.836Z,13.02
2023-03-30T19:30:39.899Z,11.32
2023-03-30T19:33:12.235Z,11.10
2023-03-30T19:35:43.881Z,13.60
2023-03-30T19:38:10.808Z,9.38
2023-03-30T19:40:41.106Z,8.80
2023-03-30T19:43:09.749Z,10.93
2023-03-30T19:45:36.669Z,12.02
2023-03-30T19:48:03.494Z,17.25
2023-03-30T19:50:30.634Z,11.38
2023-03-30T19:52:58.092Z,13.48
2023-03-30T19:55:25.033Z,12.82
2023-03-30T19:57:51.807Z,12.80
2023-03-30T20:00:19.356Z,13.57
2023-03-30T20:02:48.738Z,14.65
2023-03-30T20:05:16.749Z,11.13
2023-03-30T20:07:45.190Z,8.80
2023-03-30T20:10:14.885Z,9.55
2023-03-30T20:12:42.875Z,19.05
2023-03-30T20:15:10.057Z,9.52
2023-03-30T20:17:38.414Z,13.85
2023-03-30T20:20:09.280Z,10.35
2023-03-30T20:22:37.924Z,11.40
2023-03-30T20:25:08.479Z,8.18
2023-03-30T20:27:36.038Z,15.40
2023-03-30T20:30:04.514Z,12.98
2023-03-30T20:32:31.950Z,11.20
2023-03-30T20:34:58.731Z,11.02
2023-03-30T20:37:25.350Z,9.23
2023-03-30T20:39:52.189Z,10.63
2023-03-30T20:42:26.250Z,9.90
2023-03-30T20:44:53.648Z,11.20
2023-03-30T20:47:23.516Z,9.50
2023-03-30T20:49:50.376Z,11.88
2023-03-30T20:52:17.238Z,14.75
2023-03-30T20:54:44.781Z,9.30
2023-03-30T20:57:11.986Z,7.50
2023-03-30T20:59:39.604Z,8.35
2023-03-30T21:02:07.162Z,11.57
2023-03-30T21:04:34.193Z,12.23
2023-03-30T21:07:01.047Z,8.93
2023-03-30T21:09:28.849Z,12.02
2023-03-30T21:11:55.886Z,10.35
2023-03-30T21:14:24.244Z,11.05
2023-03-30T21:16:51.039Z,11.05
2023-03-30T21:19:17.769Z,12.73
2023-03-30T21:21:44.797Z,11.02
2023-03-30T21:24:12.271Z,7.82
2023-03-30T21:26:39.034Z,7.15
2023-03-30T21:29:05.842Z,7.13
2023-03-30T21:31:32.950Z,8.50
2023-03-30T21:34:00.105Z,8.65
2023-03-30T21:36:27.404Z,7.68
2023-03-30T21:38:56.234Z,8.27
2023-03-30T21:41:24.350Z,8.05
2023-03-30T21:43:51.287Z,8.93
2023-03-30T21:46:21.406Z,7.30
2023-03-30T21:48:52.570Z,10.63
2023-03-30T21:51:27.426Z,11.73
2023-03-30T21:53:56.163Z,11.38
2023-03-30T21:56:24.948Z,11.60
2023-03-30T21:58:54.717Z,8.20
2023-03-30T22:01:24.238Z,6.28
2023-03-30T22:03:52.097Z,9.77
2023-03-30T22:06:19.808Z,10.55
2023-03-30T22:08:47.111Z,8.27
2023-03-30T22:11:19.319Z,11.80
2023-03-30T22:13:48.349Z,11.65
2023-03-30T22:16:18.753Z,20.02
2023-03-30T22:18:46.443Z,13.48
2023-03-30T22:21:16.367Z,11.93
2023-03-30T22:23:43.464Z,14.95
2023-03-30T22:26:11.557Z,11.55
2023-03-30T22:28:38.228Z,22.45
2023-03-30T22:31:09.836Z,22.77
2023-03-30T22:33:36.727Z,15.60
2023-03-30T22:36:04.333Z,20.27
2023-03-30T22:38:31.448Z,27.05
2023-03-30T22:41:07.846Z,17.08
2023-03-30T22:43:35.989Z,22.17
2023-03-30T22:46:03.705Z,21.08
2023-03-30T22:48:30.627Z,13.90
2023-03-30T22:51:02.169Z,15.98
2023-03-30T22:53:32.832Z,14.40
2023-03-30T22:56:00.310Z,16.25
2023-03-30T22:58:27.649Z,15.55
2023-03-30T23:01:01.190Z,16.08
2023-03-30T23:03:28.287Z,13.65
2023-03-30T23:05:55.948Z,17.02
2023-03-30T23:08:24.001Z,16.55
2023-03-30T23:10:53.951Z,18.15
2023-03-30T23:13:20.544Z,10.25
2023-03-30T23:15:48.784Z,17.05
2023-03-30T23:18:16.122Z,19.95
2023-03-30T23:20:46.823Z,14.85
2023-03-30T23:23:14.565Z,14.52
2023-03-30T23:25:49.477Z,13.50
2023-03-30T23:28:16.655Z,16.85
2023-03-30T23:30:44.945Z,16.70
2023-03-30T23:33:12.165Z,14.90
2023-03-30T23:35:38.973Z,16.58
2023-03-30T23:38:05.638Z,16.65
2023-03-30T23:40:32.392Z,12.60
2023-03-30T23:42:59.047Z,11.38
2023-03-30T23:45:25.862Z,16.92
2023-03-30T23:47:52.705Z,9.77
2023-03-30T23:50:19.351Z,10.65
2023-03-30T23:52:46.679Z,11.40
2023-03-30T23:55:13.337Z,12.20
2023-03-30T23:57:40.046Z,10.23
